sensor_id;sensor_type;location;lat;lon;timestamp;P1;durP1;ratioP1;P2;durP2;ratioP2
4148;SDS011;2088;51.032;7.082;2022-08-18T00:01:47;19.00;;;12.37;;
4148;SDS011;2088;51.032;7.082;2022-08-18T00:04:15;11.63;;;9.40;;
4148;SDS011;2088;51.032;7.082;2022-08-18T00:06:41;15.57;;;11.60;;
4148;SDS011;2088;51.032;7.082;2022-08-18T00:09:08;13.93;;;9.97;;
4148;SDS011;2088;51.032;7.082;2022-08-18T00:11:40;15.80;;;11.10;;
4148;SDS011;2088;51.032;7.082;2022-08-18T00:14:10;18.23;;;11.57;;
4148;SDS011;2088;51.032;7.082;2022-08-18T00:16:38;18.47;;;9.90;;
4148;SDS011;2088;51.032;7.082;2022-08-18T00:19:06;16.17;;;11.57;;
4148;SDS011;2088;51.032;7.082;2022-08-18T00:21:32;17.43;;;11.53;;
4148;SDS011;2088;51.032;7.082;2022-08-18T00:23:59;17.13;;;11.10;;
4148;SDS011;2088;51.032;7.082;2022-08-18T00:26:25;16.70;;;11.70;;
4148;SDS011;2088;51.032;7.082;2022-08-18T00:28:52;17.20;;;11.20;;
4148;SDS011;2088;51.032;7.082;2022-08-18T00:31:19;13.07;;;10.13;;
4148;SDS011;2088;51.032;7.082;2022-08-18T00:33:45;14.23;;;10.70;;
4148;SDS011;2088;51.032;7.082;2022-08-18T00:36:13;20.37;;;12.57;;
4148;SDS011;2088;51.032;7.082;2022-08-18T00:38:39;18.60;;;13.30;;
4148;SDS011;2088;51.032;7.082;2022-08-18T00:41:06;21.70;;;12.37;;
4148;SDS011;2088;51.032;7.082;2022-08-18T00:43:34;19.57;;;12.50;;
4148;SDS011;2088;51.032;7.082;2022-08-18T00:46:05;18.83;;;11.63;;
4148;SDS011;2088;51.032;7.082;2022-08-18T00:48:33;19.80;;;12.73;;
4148;SDS011;2088;51.032;7.082;2022-08-18T00:51:01;20.50;;;14.13;;
4148;SDS011;2088;51.032;7.082;2022-08-18T00:53:35;19.70;;;11.73;;
4148;SDS011;2088;51.032;7.082;2022-08-18T00:56:04;16.53;;;11.00;;
4148;SDS011;2088;51.032;7.082;2022-08-18T00:58:34;21.87;;;10.30;;
4148;SDS011;2088;51.032;7.082;2022-08-18T01:01:05;23.90;;;13.53;;
4148;SDS011;2088;51.032;7.082;2022-08-18T01:03:33;18.90;;;12.30;;
4148;SDS011;2088;51.032;7.082;2022-08-18T01:06:04;20.07;;;12.50;;
4148;SDS011;2088;51.032;7.082;2022-08-18T01:08:36;14.60;;;10.97;;
4148;SDS011;2088;51.032;7.082;2022-08-18T01:11:05;18.53;;;11.80;;
4148;SDS011;2088;51.032;7.082;2022-08-18T01:13:32;20.23;;;12.00;;
4148;SDS011;2088;51.032;7.082;2022-08-18T01:15:59;17.57;;;11.67;;
4148;SDS011;2088;51.032;7.082;2022-08-18T01:18:47;17.27;;;12.50;;
4148;SDS011;2088;51.032;7.082;2022-08-18T01:21:31;21.97;;;12.73;;
4148;SDS011;2088;51.032;7.082;2022-08-18T01:24:19;20.90;;;14.27;;
4148;SDS011;2088;51.032;7.082;2022-08-18T01:27:10;20.40;;;13.23;;
4148;SDS011;2088;51.032;7.082;2022-08-18T01:29:41;18.37;;;13.10;;
4148;SDS011;2088;51.032;7.082;2022-08-18T01:32:08;23.83;;;13.93;;
4148;SDS011;2088;51.032;7.082;2022-08-18T01:34:36;23.87;;;14.17;;
4148;SDS011;2088;51.032;7.082;2022-08-18T01:37:03;24.97;;;14.60;;
4148;SDS011;2088;51.032;7.082;2022-08-18T01:39:31;19.17;;;14.43;;
4148;SDS011;2088;51.032;7.082;2022-08-18T01:41:59;19.73;;;13.87;;
4148;SDS011;2088;51.032;7.082;2022-08-18T01:44:26;29.40;;;14.97;;
4148;SDS011;2088;51.032;7.082;2022-08-18T01:46:52;20.27;;;13.20;;
4148;SDS011;2088;51.032;7.082;2022-08-18T01:49:20;21.97;;;13.80;;
4148;SDS011;2088;51.032;7.082;2022-08-18T01:51:46;22.27;;;15.43;;
4148;SDS011;2088;51.032;7.082;2022-08-18T01:54:14;21.47;;;14.23;;
4148;SDS011;2088;51.032;7.082;2022-08-18T01:56:41;20.73;;;14.37;;
4148;SDS011;2088;51.032;7.082;2022-08-18T01:59:09;35.43;;;16.00;;
4148;SDS011;2088;51.032;7.082;2022-08-18T02:01:38;24.67;;;13.20;;
4148;SDS011;2088;51.032;7.082;2022-08-18T02:04:06;20.70;;;13.30;;
4148;SDS011;2088;51.032;7.082;2022-08-18T02:06:35;19.07;;;12.40;;
4148;SDS011;2088;51.032;7.082;2022-08-18T02:09:02;26.07;;;14.73;;
4148;SDS011;2088;51.032;7.082;2022-08-18T02:11:29;21.17;;;13.10;;
4148;SDS011;2088;51.032;7.082;2022-08-18T02:13:57;19.63;;;12.40;;
4148;SDS011;2088;51.032;7.082;2022-08-18T02:16:23;18.80;;;12.80;;
4148;SDS011;2088;51.032;7.082;2022-08-18T02:18:49;18.63;;;12.70;;
4148;SDS011;2088;51.032;7.082;2022-08-18T02:21:17;24.57;;;13.63;;
4148;SDS011;2088;51.032;7.082;2022-08-18T02:23:46;13.40;;;11.00;;
4148;SDS011;2088;51.032;7.082;2022-08-18T02:26:14;19.27;;;14.23;;
4148;SDS011;2088;51.032;7.082;2022-08-18T02:28:41;17.83;;;12.30;;
4148;SDS011;2088;51.032;7.082;2022-08-18T02:31:10;21.73;;;11.80;;
4148;SDS011;2088;51.032;7.082;2022-08-18T02:33:39;19.43;;;14.33;;
4148;SDS011;2088;51.032;7.082;2022-08-18T02:36:06;22.03;;;14.37;;
4148;SDS011;2088;51.032;7.082;2022-08-18T02:38:34;21.73;;;15.10;;
4148;SDS011;2088;51.032;7.082;2022-08-18T02:41:02;25.73;;;15.00;;
4148;SDS011;2088;51.032;7.082;2022-08-18T02:43:30;24.80;;;14.77;;
4148;SDS011;2088;51.032;7.082;2022-08-18T02:45:57;23.53;;;14.53;;
4148;SDS011;2088;51.032;7.082;2022-08-18T02:48:25;20.20;;;14.20;;
4148;SDS011;2088;51.032;7.082;2022-08-18T02:50:58;21.57;;;12.07;;
4148;SDS011;2088;51.032;7.082;2022-08-18T02:53:25;23.40;;;13.73;;
4148;SDS011;2088;51.032;7.082;2022-08-18T02:55:52;23.90;;;14.50;;
4148;SDS011;2088;51.032;7.082;2022-08-18T02:58:19;29.27;;;15.30;;
4148;SDS011;2088;51.032;7.082;2022-08-18T03:00:45;23.00;;;14.63;;
4148;SDS011;2088;51.032;7.082;2022-08-18T03:03:12;21.03;;;14.97;;
4148;SDS011;2088;51.032;7.082;2022-08-18T03:05:40;21.40;;;13.53;;
4148;SDS011;2088;51.032;7.082;2022-08-18T03:08:06;20.73;;;13.70;;
4148;SDS011;2088;51.032;7.082;2022-08-18T03:10:35;25.67;;;15.27;;
4148;SDS011;2088;51.032;7.082;2022-08-18T03:13:02;29.00;;;17.93;;
4148;SDS011;2088;51.032;7.082;2022-08-18T03:15:28;25.37;;;16.47;;
4148;SDS011;2088;51.032;7.082;2022-08-18T03:17:55;21.23;;;15.30;;
4148;SDS011;2088;51.032;7.082;2022-08-18T03:20:22;28.10;;;17.70;;
4148;SDS011;2088;51.032;7.082;2022-08-18T03:22:49;33.30;;;16.97;;
4148;SDS011;2088;51.032;7.082;2022-08-18T03:25:16;27.23;;;17.03;;
4148;SDS011;2088;51.032;7.082;2022-08-18T03:27:42;28.17;;;16.40;;
4148;SDS011;2088;51.032;7.082;2022-08-18T03:30:09;30.37;;;18.40;;
4148;SDS011;2088;51.032;7.082;2022-08-18T03:32:36;49.00;;;16.90;;
4148;SDS011;2088;51.032;7.082;2022-08-18T03:35:02;32.03;;;17.77;;
4148;SDS011;2088;51.032;7.082;2022-08-18T03:37:29;30.03;;;17.00;;
4148;SDS011;2088;51.032;7.082;2022-08-18T03:39:57;22.33;;;13.83;;
4148;SDS011;2088;51.032;7.082;2022-08-18T03:42:24;37.97;;;18.20;;
4148;SDS011;2088;51.032;7.082;2022-08-18T03:44:50;37.20;;;19.87;;
4148;SDS011;2088;51.032;7.082;2022-08-18T03:47:17;60.30;;;22.70;;
4148;SDS011;2088;51.032;7.082;2022-08-18T03:49:43;42.13;;;25.23;;
4148;SDS011;2088;51.032;7.082;2022-08-18T03:52:10;44.27;;;23.50;;
4148;SDS011;2088;51.032;7.082;2022-08-18T03:54:37;57.83;;;28.03;;
4148;SDS011;2088;51.032;7.082;2022-08-18T03:57:07;53.13;;;27.23;;
4148;SDS011;2088;51.032;7.082;2022-08-18T03:59:35;46.00;;;25.20;;
4148;SDS011;2088;51.032;7.082;2022-08-18T04:02:02;55.37;;;25.37;;
4148;SDS011;2088;51.032;7.082;2022-08-18T04:04:30;58.30;;;25.50;;
4148;SDS011;2088;51.032;7.082;2022-08-18T04:06:57;52.23;;;25.30;;
4148;SDS011;2088;51.032;7.082;2022-08-18T04:09:25;51.23;;;25.43;;
4148;SDS011;2088;51.032;7.082;2022-08-18T04:11:54;57.20;;;28.00;;
4148;SDS011;2088;51.032;7.082;2022-08-18T04:14:23;58.57;;;27.47;;
4148;SDS011;2088;51.032;7.082;2022-08-18T04:16:53;45.40;;;23.00;;
4148;SDS011;2088;51.032;7.082;2022-08-18T04:19:19;31.40;;;18.37;;
4148;SDS011;2088;51.032;7.082;2022-08-18T04:21:46;29.70;;;18.67;;
4148;SDS011;2088;51.032;7.082;2022-08-18T04:24:16;29.00;;;15.77;;
4148;SDS011;2088;51.032;7.082;2022-08-18T04:26:44;25.50;;;16.17;;
4148;SDS011;2088;51.032;7.082;2022-08-18T04:29:13;27.97;;;15.77;;
4148;SDS011;2088;51.032;7.082;2022-08-18T04:31:43;31.10;;;14.90;;
4148;SDS011;2088;51.032;7.082;2022-08-18T04:34:09;45.10;;;24.53;;
4148;SDS011;2088;51.032;7.082;2022-08-18T04:36:37;46.27;;;23.30;;
4148;SDS011;2088;51.032;7.082;2022-08-18T04:39:05;43.17;;;21.20;;
4148;SDS011;2088;51.032;7.082;2022-08-18T04:41:33;48.27;;;23.17;;
4148;SDS011;2088;51.032;7.082;2022-08-18T04:44:04;41.47;;;21.60;;
4148;SDS011;2088;51.032;7.082;2022-08-18T04:46:34;40.07;;;23.20;;
4148;SDS011;2088;51.032;7.082;2022-08-18T04:49:02;57.30;;;21.67;;
4148;SDS011;2088;51.032;7.082;2022-08-18T04:51:29;38.20;;;22.10;;
4148;SDS011;2088;51.032;7.082;2022-08-18T04:53:56;42.53;;;24.90;;
4148;SDS011;2088;51.032;7.082;2022-08-18T04:56:25;52.47;;;23.67;;
4148;SDS011;2088;51.032;7.082;2022-08-18T04:58:55;46.37;;;23.40;;
4148;SDS011;2088;51.032;7.082;2022-08-18T05:01:24;65.43;;;30.60;;
4148;SDS011;2088;51.032;7.082;2022-08-18T05:03:52;63.23;;;27.77;;
4148;SDS011;2088;51.032;7.082;2022-08-18T05:06:22;57.83;;;28.50;;
4148;SDS011;2088;51.032;7.082;2022-08-18T05:08:51;54.43;;;26.00;;
4148;SDS011;2088;51.032;7.082;2022-08-18T05:11:18;58.13;;;29.47;;
4148;SDS011;2088;51.032;7.082;2022-08-18T05:13:46;54.90;;;28.00;;
4148;SDS011;2088;51.032;7.082;2022-08-18T05:16:13;54.77;;;28.77;;
4148;SDS011;2088;51.032;7.082;2022-08-18T05:18:40;63.07;;;29.73;;
4148;SDS011;2088;51.032;7.082;2022-08-18T05:21:07;60.80;;;26.97;;
4148;SDS011;2088;51.032;7.082;2022-08-18T05:23:39;59.37;;;28.87;;
4148;SDS011;2088;51.032;7.082;2022-08-18T05:26:06;65.47;;;28.90;;
4148;SDS011;2088;51.032;7.082;2022-08-18T05:28:33;74.03;;;29.27;;
4148;SDS011;2088;51.032;7.082;2022-08-18T05:31:04;66.97;;;30.33;;
4148;SDS011;2088;51.032;7.082;2022-08-18T05:33:32;61.27;;;26.50;;
4148;SDS011;2088;51.032;7.082;2022-08-18T05:35:59;56.50;;;26.87;;
4148;SDS011;2088;51.032;7.082;2022-08-18T05:38:32;66.03;;;30.50;;
4148;SDS011;2088;51.032;7.082;2022-08-18T05:41:11;62.30;;;30.30;;
4148;SDS011;2088;51.032;7.082;2022-08-18T05:43:44;73.03;;;29.83;;
4148;SDS011;2088;51.032;7.082;2022-08-18T05:46:11;66.70;;;30.27;;
4148;SDS011;2088;51.032;7.082;2022-08-18T05:48:38;58.37;;;29.47;;
4148;SDS011;2088;51.032;7.082;2022-08-18T05:51:09;70.77;;;29.17;;
4148;SDS011;2088;51.032;7.082;2022-08-18T05:53:40;72.07;;;29.77;;
4148;SDS011;2088;51.032;7.082;2022-08-18T05:56:26;87.47;;;32.90;;
4148;SDS011;2088;51.032;7.082;2022-08-18T05:59:11;65.10;;;29.40;;
4148;SDS011;2088;51.032;7.082;2022-08-18T06:01:42;66.53;;;28.70;;
4148;SDS011;2088;51.032;7.082;2022-08-18T06:04:18;63.00;;;30.67;;
4148;SDS011;2088;51.032;7.082;2022-08-18T06:06:50;75.90;;;31.70;;
4148;SDS011;2088;51.032;7.082;2022-08-18T06:09:20;77.53;;;32.53;;
4148;SDS011;2088;51.032;7.082;2022-08-18T06:11:51;69.33;;;32.00;;
4148;SDS011;2088;51.032;7.082;2022-08-18T06:14:21;57.30;;;27.50;;
4148;SDS011;2088;51.032;7.082;2022-08-18T06:16:50;74.60;;;32.50;;
4148;SDS011;2088;51.032;7.082;2022-08-18T06:19:28;69.60;;;29.20;;
4148;SDS011;2088;51.032;7.082;2022-08-18T06:22:07;80.10;;;30.23;;
4148;SDS011;2088;51.032;7.082;2022-08-18T06:24:43;82.70;;;29.60;;
4148;SDS011;2088;51.032;7.082;2022-08-18T06:27:19;58.33;;;30.57;;
4148;SDS011;2088;51.032;7.082;2022-08-18T06:29:57;76.90;;;31.17;;
4148;SDS011;2088;51.032;7.082;2022-08-18T06:32:34;69.17;;;27.17;;
4148;SDS011;2088;51.032;7.082;2022-08-18T06:35:23;74.97;;;29.77;;
4148;SDS011;2088;51.032;7.082;2022-08-18T06:37:58;81.17;;;28.17;;
4148;SDS011;2088;51.032;7.082;2022-08-18T06:40:59;65.17;;;29.00;;
4148;SDS011;2088;51.032;7.082;2022-08-18T06:43:27;56.87;;;27.60;;
4148;SDS011;2088;51.032;7.082;2022-08-18T06:45:58;61.13;;;28.60;;
4148;SDS011;2088;51.032;7.082;2022-08-18T06:48:26;74.47;;;31.73;;
4148;SDS011;2088;51.032;7.082;2022-08-18T06:51:02;57.93;;;25.43;;
4148;SDS011;2088;51.032;7.082;2022-08-18T06:53:51;56.50;;;24.87;;
4148;SDS011;2088;51.032;7.082;2022-08-18T06:56:23;62.37;;;28.77;;
4148;SDS011;2088;51.032;7.082;2022-08-18T06:58:53;64.93;;;30.33;;
4148;SDS011;2088;51.032;7.082;2022-08-18T07:01:20;70.50;;;27.77;;
4148;SDS011;2088;51.032;7.082;2022-08-18T07:03:49;62.70;;;27.93;;
4148;SDS011;2088;51.032;7.082;2022-08-18T07:06:24;64.27;;;29.30;;
4148;SDS011;2088;51.032;7.082;2022-08-18T07:09:16;59.03;;;28.80;;
4148;SDS011;2088;51.032;7.082;2022-08-18T07:11:56;66.57;;;29.63;;
4148;SDS011;2088;51.032;7.082;2022-08-18T07:14:24;63.70;;;26.47;;
4148;SDS011;2088;51.032;7.082;2022-08-18T07:17:02;61.47;;;28.00;;
4148;SDS011;2088;51.032;7.082;2022-08-18T07:19:32;57.93;;;26.20;;
4148;SDS011;2088;51.032;7.082;2022-08-18T07:22:00;62.60;;;26.10;;
4148;SDS011;2088;51.032;7.082;2022-08-18T07:24:29;46.40;;;27.10;;
4148;SDS011;2088;51.032;7.082;2022-08-18T07:27:00;55.10;;;26.13;;
4148;SDS011;2088;51.032;7.082;2022-08-18T07:29:31;48.73;;;25.23;;
4148;SDS011;2088;51.032;7.082;2022-08-18T07:32:01;62.13;;;28.13;;
4148;SDS011;2088;51.032;7.082;2022-08-18T07:34:35;51.90;;;25.87;;
4148;SDS011;2088;51.032;7.082;2022-08-18T07:37:07;68.70;;;29.97;;
4148;SDS011;2088;51.032;7.082;2022-08-18T07:39:40;71.73;;;29.33;;
4148;SDS011;2088;51.032;7.082;2022-08-18T07:42:12;70.17;;;27.03;;
4148;SDS011;2088;51.032;7.082;2022-08-18T07:44:43;64.93;;;27.07;;
4148;SDS011;2088;51.032;7.082;2022-08-18T07:47:17;64.63;;;27.30;;
4148;SDS011;2088;51.032;7.082;2022-08-18T07:49:48;65.23;;;26.77;;
4148;SDS011;2088;51.032;7.082;2022-08-18T07:52:17;73.90;;;28.03;;
4148;SDS011;2088;51.032;7.082;2022-08-18T07:54:49;67.53;;;25.30;;
4148;SDS011;2088;51.032;7.082;2022-08-18T07:57:26;55.60;;;25.70;;
4148;SDS011;2088;51.032;7.082;2022-08-18T08:00:04;69.53;;;29.90;;
4148;SDS011;2088;51.032;7.082;2022-08-18T08:02:38;56.33;;;27.43;;
4148;SDS011;2088;51.032;7.082;2022-08-18T08:05:35;70.17;;;27.20;;
4148;SDS011;2088;51.032;7.082;2022-08-18T08:08:10;65.27;;;26.67;;
4148;SDS011;2088;51.032;7.082;2022-08-18T08:10:53;61.63;;;24.50;;
4148;SDS011;2088;51.032;7.082;2022-08-18T08:13:33;61.43;;;27.67;;
4148;SDS011;2088;51.032;7.082;2022-08-18T08:16:09;63.77;;;29.50;;
4148;SDS011;2088;51.032;7.082;2022-08-18T08:18:45;73.83;;;32.97;;
4148;SDS011;2088;51.032;7.082;2022-08-18T08:21:20;49.27;;;23.07;;
4148;SDS011;2088;51.032;7.082;2022-08-18T08:23:51;59.83;;;27.20;;
4148;SDS011;2088;51.032;7.082;2022-08-18T08:26:31;61.37;;;25.00;;
4148;SDS011;2088;51.032;7.082;2022-08-18T08:29:12;59.57;;;26.13;;
4148;SDS011;2088;51.032;7.082;2022-08-18T08:31:49;58.53;;;27.30;;
4148;SDS011;2088;51.032;7.082;2022-08-18T08:34:23;57.63;;;28.43;;
4148;SDS011;2088;51.032;7.082;2022-08-18T08:36:56;56.13;;;25.73;;
4148;SDS011;2088;51.032;7.082;2022-08-18T08:39:26;61.03;;;23.60;;
4148;SDS011;2088;51.032;7.082;2022-08-18T08:42:04;58.97;;;26.10;;
4148;SDS011;2088;51.032;7.082;2022-08-18T08:44:37;57.60;;;26.80;;
4148;SDS011;2088;51.032;7.082;2022-08-18T08:47:09;53.50;;;24.20;;
4148;SDS011;2088;51.032;7.082;2022-08-18T08:49:43;46.67;;;21.77;;
4148;SDS011;2088;51.032;7.082;2022-08-18T08:52:14;45.77;;;23.17;;
4148;SDS011;2088;51.032;7.082;2022-08-18T08:54:47;55.73;;;24.27;;
4148;SDS011;2088;51.032;7.082;2022-08-18T08:57:18;42.50;;;20.70;;
4148;SDS011;2088;51.032;7.082;2022-08-18T08:59:52;38.67;;;20.20;;
4148;SDS011;2088;51.032;7.082;2022-08-18T09:02:25;42.53;;;19.37;;
4148;SDS011;2088;51.032;7.082;2022-08-18T09:05:05;32.93;;;18.77;;
4148;SDS011;2088;51.032;7.082;2022-08-18T09:10:47;42.53;;;21.47;;
4148;SDS011;2088;51.032;7.082;2022-08-18T09:16:25;28.30;;;13.33;;
4148;SDS011;2088;51.032;7.082;2022-08-18T09:22:05;36.93;;;19.47;;
4148;SDS011;2088;51.032;7.082;2022-08-18T09:24:37;36.33;;;19.10;;
4148;SDS011;2088;51.032;7.082;2022-08-18T09:27:11;53.27;;;17.87;;
4148;SDS011;2088;51.032;7.082;2022-08-18T09:29:50;29.47;;;16.27;;
4148;SDS011;2088;51.032;7.082;2022-08-18T09:32:30;35.43;;;19.10;;
4148;SDS011;2088;51.032;7.082;2022-08-18T09:35:10;33.07;;;18.87;;
4148;SDS011;2088;51.032;7.082;2022-08-18T09:37:46;33.57;;;18.23;;
4148;SDS011;2088;51.032;7.082;2022-08-18T09:40:43;29.20;;;17.47;;
4148;SDS011;2088;51.032;7.082;2022-08-18T09:43:31;25.30;;;13.43;;
4148;SDS011;2088;51.032;7.082;2022-08-18T09:46:01;25.20;;;14.60;;
4148;SDS011;2088;51.032;7.082;2022-08-18T09:48:31;23.77;;;13.27;;
4148;SDS011;2088;51.032;7.082;2022-08-18T09:54:07;36.07;;;15.97;;
4148;SDS011;2088;51.032;7.082;2022-08-18T10:05:39;24.50;;;15.77;;
4148;SDS011;2088;51.032;7.082;2022-08-18T10:08:36;21.20;;;12.20;;
4148;SDS011;2088;51.032;7.082;2022-08-18T10:11:17;24.33;;;12.80;;
4148;SDS011;2088;51.032;7.082;2022-08-18T10:13:55;23.83;;;14.40;;
4148;SDS011;2088;51.032;7.082;2022-08-18T10:16:44;20.57;;;13.30;;
4148;SDS011;2088;51.032;7.082;2022-08-18T10:19:18;21.30;;;13.87;;
4148;SDS011;2088;51.032;7.082;2022-08-18T10:22:03;25.13;;;15.53;;
4148;SDS011;2088;51.032;7.082;2022-08-18T10:24:36;24.40;;;12.17;;
4148;SDS011;2088;51.032;7.082;2022-08-18T10:27:09;24.80;;;13.80;;
4148;SDS011;2088;51.032;7.082;2022-08-18T10:29:52;28.93;;;14.70;;
4148;SDS011;2088;51.032;7.082;2022-08-18T10:38:37;19.13;;;13.10;;
4148;SDS011;2088;51.032;7.082;2022-08-18T10:41:08;17.83;;;10.67;;
4148;SDS011;2088;51.032;7.082;2022-08-18T10:43:44;22.40;;;11.30;;
4148;SDS011;2088;51.032;7.082;2022-08-18T10:46:14;14.03;;;9.03;;
4148;SDS011;2088;51.032;7.082;2022-08-18T10:48:43;16.13;;;9.63;;
4148;SDS011;2088;51.032;7.082;2022-08-18T10:51:24;21.33;;;12.47;;
4148;SDS011;2088;51.032;7.082;2022-08-18T10:54:04;16.10;;;10.80;;
4148;SDS011;2088;51.032;7.082;2022-08-18T10:56:39;18.23;;;10.77;;
4148;SDS011;2088;51.032;7.082;2022-08-18T10:59:12;17.07;;;9.57;;
4148;SDS011;2088;51.032;7.082;2022-08-18T11:01:49;11.50;;;8.43;;
4148;SDS011;2088;51.032;7.082;2022-08-18T11:04:27;21.47;;;12.97;;
4148;SDS011;2088;51.032;7.082;2022-08-18T11:07:00;12.70;;;9.23;;
4148;SDS011;2088;51.032;7.082;2022-08-18T11:09:31;13.00;;;9.03;;
4148;SDS011;2088;51.032;7.082;2022-08-18T11:11:59;15.10;;;9.30;;
4148;SDS011;2088;51.032;7.082;2022-08-18T11:17:25;12.67;;;8.40;;
4148;SDS011;2088;51.032;7.082;2022-08-18T11:19:58;18.30;;;10.13;;
4148;SDS011;2088;51.032;7.082;2022-08-18T11:22:28;12.53;;;8.03;;
4148;SDS011;2088;51.032;7.082;2022-08-18T11:24:57;23.00;;;10.23;;
4148;SDS011;2088;51.032;7.082;2022-08-18T11:27:25;16.90;;;7.70;;
4148;SDS011;2088;51.032;7.082;2022-08-18T11:29:54;12.47;;;8.47;;
4148;SDS011;2088;51.032;7.082;2022-08-18T11:32:27;16.63;;;9.00;;
4148;SDS011;2088;51.032;7.082;2022-08-18T11:34:59;18.00;;;9.80;;
4148;SDS011;2088;51.032;7.082;2022-08-18T11:37:31;12.60;;;8.70;;
4148;SDS011;2088;51.032;7.082;2022-08-18T11:40:04;8.93;;;6.93;;
4148;SDS011;2088;51.032;7.082;2022-08-18T11:42:36;16.10;;;10.27;;
4148;SDS011;2088;51.032;7.082;2022-08-18T11:45:06;14.80;;;9.90;;
4148;SDS011;2088;51.032;7.082;2022-08-18T11:50:27;27.17;;;8.60;;
4148;SDS011;2088;51.032;7.082;2022-08-18T11:52:55;13.50;;;8.37;;
4148;SDS011;2088;51.032;7.082;2022-08-18T11:55:28;16.83;;;9.73;;
4148;SDS011;2088;51.032;7.082;2022-08-18T11:57:57;9.30;;;6.73;;
4148;SDS011;2088;51.032;7.082;2022-08-18T12:00:38;12.60;;;8.03;;
4148;SDS011;2088;51.032;7.082;2022-08-18T12:03:08;13.50;;;8.73;;
4148;SDS011;2088;51.032;7.082;2022-08-18T12:05:41;15.80;;;9.00;;
4148;SDS011;2088;51.032;7.082;2022-08-18T12:08:19;14.23;;;7.73;;
4148;SDS011;2088;51.032;7.082;2022-08-18T12:10:59;14.40;;;7.63;;
4148;SDS011;2088;51.032;7.082;2022-08-18T12:13:28;11.93;;;7.10;;
4148;SDS011;2088;51.032;7.082;2022-08-18T12:16:08;20.03;;;7.77;;
4148;SDS011;2088;51.032;7.082;2022-08-18T12:18:37;22.53;;;9.97;;
4148;SDS011;2088;51.032;7.082;2022-08-18T12:21:03;15.20;;;9.33;;
4148;SDS011;2088;51.032;7.082;2022-08-18T12:23:30;12.87;;;7.10;;
4148;SDS011;2088;51.032;7.082;2022-08-18T12:25:59;13.67;;;9.20;;
4148;SDS011;2088;51.032;7.082;2022-08-18T12:28:26;15.30;;;8.27;;
4148;SDS011;2088;51.032;7.082;2022-08-18T12:30:52;13.43;;;7.40;;
4148;SDS011;2088;51.032;7.082;2022-08-18T12:33:19;17.63;;;10.30;;
4148;SDS011;2088;51.032;7.082;2022-08-18T12:35:45;10.43;;;7.00;;
4148;SDS011;2088;51.032;7.082;2022-08-18T12:38:12;12.70;;;8.47;;
4148;SDS011;2088;51.032;7.082;2022-08-18T12:40:41;19.23;;;10.63;;
4148;SDS011;2088;51.032;7.082;2022-08-18T12:43:10;13.40;;;9.33;;
4148;SDS011;2088;51.032;7.082;2022-08-18T12:45:37;10.10;;;6.57;;
4148;SDS011;2088;51.032;7.082;2022-08-18T12:48:03;13.57;;;8.37;;
4148;SDS011;2088;51.032;7.082;2022-08-18T12:50:31;12.33;;;7.83;;
4148;SDS011;2088;51.032;7.082;2022-08-18T12:52:57;12.07;;;8.60;;
4148;SDS011;2088;51.032;7.082;2022-08-18T12:55:24;11.97;;;6.80;;
4148;SDS011;2088;51.032;7.082;2022-08-18T12:57:51;14.87;;;7.60;;
4148;SDS011;2088;51.032;7.082;2022-08-18T13:00:19;12.47;;;6.00;;
4148;SDS011;2088;51.032;7.082;2022-08-18T13:02:46;11.80;;;7.00;;
4148;SDS011;2088;51.032;7.082;2022-08-18T13:05:12;13.50;;;7.10;;
4148;SDS011;2088;51.032;7.082;2022-08-18T13:07:39;6.93;;;5.07;;
4148;SDS011;2088;51.032;7.082;2022-08-18T13:10:06;8.73;;;5.97;;
4148;SDS011;2088;51.032;7.082;2022-08-18T13:12:33;14.87;;;7.37;;
4148;SDS011;2088;51.032;7.082;2022-08-18T13:14:59;12.57;;;8.03;;
4148;SDS011;2088;51.032;7.082;2022-08-18T13:17:27;8.00;;;5.03;;
4148;SDS011;2088;51.032;7.082;2022-08-18T13:19:55;15.60;;;7.00;;
4148;SDS011;2088;51.032;7.082;2022-08-18T13:22:21;11.53;;;7.40;;
4148;SDS011;2088;51.032;7.082;2022-08-18T13:24:48;15.60;;;6.40;;
4148;SDS011;2088;51.032;7.082;2022-08-18T13:27:14;15.10;;;7.67;;
4148;SDS011;2088;51.032;7.082;2022-08-18T13:29:44;11.00;;;7.17;;
4148;SDS011;2088;51.032;7.082;2022-08-18T13:32:11;7.43;;;5.80;;
4148;SDS011;2088;51.032;7.082;2022-08-18T13:34:40;9.93;;;7.57;;
4148;SDS011;2088;51.032;7.082;2022-08-18T13:37:06;12.63;;;8.47;;
4148;SDS011;2088;51.032;7.082;2022-08-18T13:39:33;11.87;;;7.67;;
4148;SDS011;2088;51.032;7.082;2022-08-18T13:41:59;11.07;;;6.43;;
4148;SDS011;2088;51.032;7.082;2022-08-18T13:44:27;9.53;;;6.63;;
4148;SDS011;2088;51.032;7.082;2022-08-18T13:46:54;8.60;;;5.97;;
4148;SDS011;2088;51.032;7.082;2022-08-18T13:49:22;14.50;;;6.80;;
4148;SDS011;2088;51.032;7.082;2022-08-18T13:51:51;9.20;;;7.57;;
4148;SDS011;2088;51.032;7.082;2022-08-18T13:54:23;9.37;;;5.50;;
4148;SDS011;2088;51.032;7.082;2022-08-18T13:56:51;10.50;;;7.03;;
4148;SDS011;2088;51.032;7.082;2022-08-18T13:59:18;11.90;;;6.60;;
4148;SDS011;2088;51.032;7.082;2022-08-18T14:01:46;9.67;;;5.87;;
4148;SDS011;2088;51.032;7.082;2022-08-18T14:04:14;6.07;;;5.00;;
4148;SDS011;2088;51.032;7.082;2022-08-18T14:06:40;9.40;;;6.60;;
4148;SDS011;2088;51.032;7.082;2022-08-18T14:09:09;8.20;;;5.50;;
4148;SDS011;2088;51.032;7.082;2022-08-18T14:11:37;9.20;;;5.73;;
4148;SDS011;2088;51.032;7.082;2022-08-18T14:14:04;8.43;;;6.20;;
4148;SDS011;2088;51.032;7.082;2022-08-18T14:16:31;10.10;;;6.20;;
4148;SDS011;2088;51.032;7.082;2022-08-18T14:18:59;10.70;;;5.57;;
4148;SDS011;2088;51.032;7.082;2022-08-18T14:21:44;6.70;;;5.07;;
4148;SDS011;2088;51.032;7.082;2022-08-18T14:24:32;10.73;;;6.40;;
4148;SDS011;2088;51.032;7.082;2022-08-18T14:27:18;8.87;;;4.43;;
4148;SDS011;2088;51.032;7.082;2022-08-18T14:29:45;6.20;;;4.70;;
4148;SDS011;2088;51.032;7.082;2022-08-18T14:32:12;8.03;;;5.90;;
4148;SDS011;2088;51.032;7.082;2022-08-18T14:34:43;7.83;;;4.27;;
4148;SDS011;2088;51.032;7.082;2022-08-18T14:37:10;9.53;;;5.97;;
4148;SDS011;2088;51.032;7.082;2022-08-18T14:39:38;11.90;;;4.93;;
4148;SDS011;2088;51.032;7.082;2022-08-18T14:42:04;5.50;;;4.77;;
4148;SDS011;2088;51.032;7.082;2022-08-18T14:44:31;5.47;;;4.97;;
4148;SDS011;2088;51.032;7.082;2022-08-18T14:46:57;9.23;;;4.47;;
4148;SDS011;2088;51.032;7.082;2022-08-18T14:49:24;6.80;;;4.90;;
4148;SDS011;2088;51.032;7.082;2022-08-18T14:51:51;10.80;;;5.53;;
4148;SDS011;2088;51.032;7.082;2022-08-18T14:54:17;12.53;;;5.83;;
4148;SDS011;2088;51.032;7.082;2022-08-18T14:56:45;5.80;;;3.97;;
4148;SDS011;2088;51.032;7.082;2022-08-18T14:59:12;14.23;;;6.30;;
4148;SDS011;2088;51.032;7.082;2022-08-18T15:01:38;11.60;;;6.30;;
4148;SDS011;2088;51.032;7.082;2022-08-18T15:04:05;5.90;;;4.07;;
4148;SDS011;2088;51.032;7.082;2022-08-18T15:06:31;8.33;;;4.77;;
4148;SDS011;2088;51.032;7.082;2022-08-18T15:08:58;7.93;;;5.40;;
4148;SDS011;2088;51.032;7.082;2022-08-18T15:11:24;6.50;;;5.43;;
4148;SDS011;2088;51.032;7.082;2022-08-18T15:13:52;8.03;;;6.30;;
4148;SDS011;2088;51.032;7.082;2022-08-18T15:16:18;8.40;;;4.87;;
4148;SDS011;2088;51.032;7.082;2022-08-18T15:18:45;6.30;;;5.17;;
4148;SDS011;2088;51.032;7.082;2022-08-18T15:21:12;6.50;;;4.80;;
4148;SDS011;2088;51.032;7.082;2022-08-18T15:23:57;7.90;;;5.27;;
4148;SDS011;2088;51.032;7.082;2022-08-18T15:26:41;7.63;;;6.53;;
4148;SDS011;2088;51.032;7.082;2022-08-18T15:29:09;12.13;;;5.40;;
4148;SDS011;2088;51.032;7.082;2022-08-18T15:31:36;6.30;;;4.80;;
4148;SDS011;2088;51.032;7.082;2022-08-18T15:34:04;5.20;;;4.23;;
4148;SDS011;2088;51.032;7.082;2022-08-18T15:36:31;7.27;;;6.10;;
4148;SDS011;2088;51.032;7.082;2022-08-18T15:38:58;8.77;;;5.67;;
4148;SDS011;2088;51.032;7.082;2022-08-18T15:41:29;8.80;;;7.37;;
4148;SDS011;2088;51.032;7.082;2022-08-18T15:43:58;13.37;;;7.20;;
4148;SDS011;2088;51.032;7.082;2022-08-18T15:46:28;7.17;;;5.90;;
4148;SDS011;2088;51.032;7.082;2022-08-18T15:48:57;8.10;;;6.03;;